createdAt,value
2018-03-08T00:01:16.342Z,91.60
2018-03-08T00:03:18.983Z,91.60
2018-03-08T00:05:21.635Z,91.60
2018-03-08T00:07:24.258Z,91.70
2018-03-08T00:09:27.727Z,91.80
2018-03-08T00:11:30.338Z,91.80
2018-03-08T00:13:33.734Z,92.00
2018-03-08T00:15:36.357Z,92.00
2018-03-08T00:17:38.988Z,91.90
2018-03-08T00:19:41.631Z,91.70
2018-03-08T00:21:44.281Z,91.50
2018-03-08T00:23:46.897Z,91.60
2018-03-08T00:25:50.281Z,91.60
2018-03-08T00:27:53.673Z,92.00
2018-03-08T00:29:56.303Z,91.70
2018-03-08T00:31:58.943Z,91.90
2018-03-08T00:34:02.454Z,91.90
2018-03-08T00:36:05.120Z,91.90
2018-03-08T00:38:07.813Z,92.00
2018-03-08T00:40:10.432Z,92.10
2018-03-08T00:42:13.077Z,92.10
2018-03-08T00:44:15.698Z,92.10
2018-03-08T00:46:19.125Z,91.80
2018-03-08T00:48:22.108Z,91.80
2018-03-08T00:50:24.706Z,91.70
2018-03-08T00:52:27.493Z,91.80
2018-03-08T00:54:30.124Z,91.90
2018-03-08T00:56:33.518Z,91.80
2018-03-08T00:58:36.893Z,91.70
2018-03-08T01:00:39.512Z,91.70
2018-03-08T01:02:42.146Z,91.70
2018-03-08T01:04:44.787Z,91.70
2018-03-08T01:06:47.451Z,91.90
2018-03-08T01:08:50.059Z,92.10
2018-03-08T01:10:52.662Z,92.00
2018-03-08T01:12:55.406Z,92.10
2018-03-08T01:14:58.019Z,92.30
2018-03-08T01:17:00.724Z,92.10
2018-03-08T01:19:03.352Z,92.10
2018-03-08T01:21:06.759Z,91.80
2018-03-08T01:23:10.136Z,91.90
2018-03-08T01:25:13.548Z,91.90
2018-03-08T01:27:16.943Z,92.00
2018-03-08T01:29:20.345Z,91.80
2018-03-08T01:31:23.086Z,91.80
2018-03-08T01:33:25.726Z,91.80
2018-03-08T01:35:28.347Z,92.00
2018-03-08T01:37:31.733Z,91.70
2018-03-08T01:39:34.351Z,91.70
2018-03-08T01:41:36.967Z,91.80
2018-03-08T01:43:39.705Z,92.00
2018-03-08T01:45:42.341Z,92.20
2018-03-08T01:47:44.954Z,92.00
2018-03-08T01:49:47.587Z,91.80
2018-03-08T01:52:02.022Z,91.80
2018-03-08T01:54:04.651Z,92.20
2018-03-08T01:56:07.297Z,91.90
2018-03-08T01:58:09.898Z,91.80
2018-03-08T02:00:12.534Z,91.90
2018-03-08T02:02:15.250Z,91.70
2018-03-08T02:04:18.748Z,91.90
2018-03-08T02:06:21.393Z,92.10
2018-03-08T02:08:24.802Z,92.50
2018-03-08T02:10:27.442Z,92.50
2018-03-08T02:12:30.059Z,92.60
2018-03-08T02:14:32.677Z,93.00
2018-03-08T02:16:35.331Z,93.10
2018-03-08T02:18:37.956Z,93.30
2018-03-08T02:20:41.407Z,93.70
2018-03-08T02:22:44.048Z,93.70
2018-03-08T02:24:47.427Z,93.60
2018-03-08T02:26:50.892Z,93.60
2018-03-08T02:28:53.506Z,93.50
2018-03-08T02:30:56.926Z,93.50
2018-03-08T02:32:59.559Z,93.50
2018-03-08T02:35:02.190Z,93.60
2018-03-08T02:37:04.832Z,93.80
2018-03-08T02:39:07.480Z,93.70
2018-03-08T02:41:10.209Z,93.50
2018-03-08T02:43:12.828Z,93.50
2018-03-08T02:45:15.466Z,93.50
2018-03-08T02:47:18.685Z,93.50
2018-03-08T02:49:21.364Z,93.50
2018-03-08T02:51:23.994Z,93.60
2018-03-08T02:53:26.629Z,93.80
2018-03-08T02:55:30.028Z,93.70
2018-03-08T02:57:33.432Z,93.70
2018-03-08T02:59:36.847Z,93.50
2018-03-08T03:01:39.475Z,93.50
2018-03-08T03:03:42.122Z,93.80
2018-03-08T03:05:44.778Z,93.40
2018-03-08T03:07:47.458Z,93.10
2018-03-08T03:09:50.107Z,92.90
2018-03-08T03:11:52.731Z,92.90
2018-03-08T03:13:55.353Z,93.10
2018-03-08T03:15:58.737Z,93.20
2018-03-08T03:18:01.375Z,93.20
2018-03-08T03:20:03.994Z,93.20
2018-03-08T03:22:07.385Z,93.30
2018-03-08T03:24:10.777Z,93.50
2018-03-08T03:26:14.185Z,93.70
2018-03-08T03:28:17.909Z,93.70
2018-03-08T03:30:20.533Z,93.90
2018-03-08T03:32:23.200Z,94.10
2018-03-08T03:34:25.889Z,94.00
2018-03-08T03:36:29.343Z,94.90
2018-03-08T03:38:32.081Z,94.90
2018-03-08T03:40:35.473Z,95.10
2018-03-08T03:42:38.863Z,95.20
2018-03-08T03:44:42.273Z,95.30
2018-03-08T03:46:44.873Z,95.30
2018-03-08T03:48:47.490Z,95.50
2018-03-08T03:50:50.273Z,95.80
2018-03-08T03:52:52.879Z,95.90
2018-03-08T03:54:55.481Z,95.80
2018-03-08T03:56:58.113Z,95.70
2018-03-08T03:59:00.761Z,95.70
2018-03-08T04:01:07.419Z,95.60
2018-03-08T04:03:10.043Z,95.80
2018-03-08T04:05:12.708Z,95.80
2018-03-08T04:07:16.156Z,96.10
2018-03-08T04:09:18.749Z,96.10
2018-03-08T04:11:21.406Z,96.10
2018-03-08T04:13:24.022Z,96.20
2018-03-08T04:15:27.392Z,96.20
2018-03-08T04:17:30.870Z,96.30
2018-03-08T04:19:33.515Z,96.30
2018-03-08T04:21:36.183Z,96.20
2018-03-08T04:23:38.802Z,96.10
2018-03-08T04:25:41.404Z,96.40
2018-03-08T04:27:44.850Z,96.30
2018-03-08T04:29:47.506Z,96.30
2018-03-08T04:31:50.258Z,96.30
2018-03-08T04:33:54.704Z,96.40
2018-03-08T04:35:57.305Z,96.10
2018-03-08T04:38:00.014Z,96.20
2018-03-08T04:40:02.688Z,96.20
2018-03-08T04:42:05.325Z,96.00
2018-03-08T04:44:07.990Z,96.20
2018-03-08T04:46:10.608Z,96.20
2018-03-08T04:48:13.298Z,96.20
2018-03-08T04:50:16.712Z,96.40
2018-03-08T04:52:20.086Z,96.30
2018-03-08T04:54:22.786Z,96.20
2018-03-08T04:56:25.386Z,96.20
2018-03-08T04:58:27.987Z,96.00
2018-03-08T05:00:30.685Z,95.80
2018-03-08T05:02:33.338Z,95.80
2018-03-08T05:04:36.194Z,95.80
2018-03-08T05:06:38.823Z,95.80
2018-03-08T05:08:42.206Z,95.80
2018-03-08T05:10:44.841Z,95.50
2018-03-08T05:12:47.468Z,95.70
2018-03-08T05:14:50.855Z,95.30
2018-03-08T05:16:53.479Z,95.30
2018-03-08T05:18:56.082Z,95.30
2018-03-08T05:20:58.705Z,95.30
2018-03-08T05:23:01.314Z,95.40
2018-03-08T05:25:03.956Z,95.10
2018-03-08T05:27:06.587Z,95.00
2018-03-08T05:29:09.190Z,95.00
2018-03-08T05:31:12.587Z,94.90
2018-03-08T05:33:15.978Z,94.90
2018-03-08T05:35:19.389Z,95.00
2018-03-08T05:37:22.020Z,94.90
2018-03-08T05:39:24.662Z,94.90
2018-03-08T05:41:27.286Z,94.60
2018-03-08T05:43:30.722Z,94.50
2018-03-08T05:45:33.345Z,94.40
2018-03-08T05:47:36.010Z,95.10
2018-03-08T05:49:38.653Z,95.40
2018-03-08T05:51:41.262Z,94.90
2018-03-08T05:53:43.879Z,94.90
2018-03-08T05:55:46.534Z,94.80
2018-03-08T05:57:50.600Z,94.70
2018-03-08T05:59:53.206Z,94.60
2018-03-08T06:01:55.885Z,94.60
2018-03-08T06:03:58.541Z,94.60
2018-03-08T06:06:01.192Z,94.80
2018-03-08T06:08:03.811Z,94.80
2018-03-08T06:10:07.227Z,94.70
2018-03-08T06:12:10.630Z,94.90
2018-03-08T06:14:13.299Z,94.90
2018-03-08T06:16:16.701Z,94.90
2018-03-08T06:18:19.372Z,94.90
2018-03-08T06:20:22.005Z,94.80
2018-03-08T06:22:24.690Z,94.90
2018-03-08T06:24:27.342Z,95.10
2018-03-08T06:26:29.965Z,95.00
2018-03-08T06:28:33.381Z,95.50
2018-03-08T06:30:36.005Z,95.50
2018-03-08T06:32:38.622Z,95.40
2018-03-08T06:34:41.285Z,95.30
2018-03-08T06:36:44.664Z,95.70
2018-03-08T06:38:47.270Z,95.60
2018-03-08T06:40:49.898Z,95.60
2018-03-08T06:42:52.522Z,95.90
2018-03-08T06:44:55.174Z,95.80
2018-03-08T06:46:58.855Z,95.60
2018-03-08T06:49:01.478Z,95.60
2018-03-08T06:51:04.112Z,95.80
2018-03-08T06:53:06.738Z,96.00
2018-03-08T06:55:09.398Z,96.60
2018-03-08T06:57:12.001Z,97.00
2018-03-08T06:59:14.618Z,97.30
2018-03-08T07:01:17.220Z,97.40
2018-03-08T07:03:20.001Z,97.40
2018-03-08T07:05:22.651Z,97.40
2018-03-08T07:07:26.019Z,97.50
2018-03-08T07:09:29.090Z,97.50
2018-03-08T07:11:31.741Z,97.90
2018-03-08T07:13:34.399Z,97.80
2018-03-08T07:15:37.033Z,98.00
2018-03-08T07:17:39.642Z,98.20
2018-03-08T07:19:43.024Z,97.90
2018-03-08T07:21:46.508Z,98.00
2018-03-08T07:23:49.134Z,98.00
2018-03-08T07:25:51.781Z,97.80
2018-03-08T07:27:55.264Z,97.80
2018-03-08T07:29:57.941Z,97.70
2018-03-08T07:32:00.570Z,97.80
2018-03-08T07:34:03.191Z,97.50
2018-03-08T07:36:06.582Z,97.40
2018-03-08T07:38:09.361Z,97.40
2018-03-08T07:40:12.749Z,97.40
2018-03-08T07:42:15.443Z,97.40
2018-03-08T07:44:18.847Z,97.30
2018-03-08T07:46:21.532Z,97.30
2018-03-08T07:48:24.154Z,96.80
2018-03-08T07:50:26.791Z,96.00
2018-03-08T07:52:29.414Z,96.10
2018-03-08T07:54:32.201Z,95.60
2018-03-08T07:56:34.814Z,96.30
2018-03-08T07:58:37.485Z,96.90
2018-03-08T08:00:40.191Z,96.50
2018-03-08T08:02:42.994Z,96.40
2018-03-08T08:04:57.494Z,96.10
2018-03-08T08:07:11.886Z,95.80
2018-03-08T08:09:14.528Z,95.70
2018-03-08T08:11:17.169Z,95.50
2018-03-08T08:13:20.542Z,95.40
2018-03-08T08:15:23.192Z,95.40
2018-03-08T08:17:25.815Z,95.20
2018-03-08T08:19:29.292Z,95.20
2018-03-08T08:21:31.938Z,95.20
2018-03-08T08:23:34.548Z,95.20
2018-03-08T08:25:37.204Z,95.30
2018-03-08T08:27:39.840Z,94.80
2018-03-08T08:29:42.490Z,94.80
2018-03-08T08:31:45.874Z,94.20
2018-03-08T08:33:48.497Z,94.20
2018-03-08T08:35:51.884Z,93.60
2018-03-08T08:37:54.520Z,93.50
2018-03-08T08:39:57.905Z,94.00
2018-03-08T08:42:00.536Z,94.00
2018-03-08T08:44:03.166Z,94.40
2018-03-08T08:46:05.805Z,94.80
2018-03-08T08:48:08.459Z,94.30
2018-03-08T08:50:11.084Z,94.80
2018-03-08T08:52:14.516Z,94.50
2018-03-08T08:54:17.123Z,94.70
2018-03-08T08:56:19.729Z,94.20
2018-03-08T08:58:22.351Z,94.70
2018-03-08T09:00:25.011Z,94.60
2018-03-08T09:02:27.627Z,94.70
2018-03-08T09:04:30.269Z,94.00
2018-03-08T09:06:32.908Z,93.70
2018-03-08T09:08:36.303Z,92.90
2018-03-08T09:10:39.726Z,93.20
2018-03-08T09:12:42.524Z,93.20
2018-03-08T09:14:45.229Z,93.40
2018-03-08T09:16:47.973Z,93.50
2018-03-08T09:18:50.598Z,93.30
2018-03-08T09:20:53.242Z,93.10
2018-03-08T09:22:55.842Z,93.20
2018-03-08T09:24:59.245Z,93.00
2018-03-08T09:27:01.866Z,92.90
2018-03-08T09:29:04.494Z,91.90
2018-03-08T09:31:07.103Z,92.40
2018-03-08T09:33:10.515Z,92.20
2018-03-08T09:35:13.135Z,92.20
2018-03-08T09:37:15.763Z,92.00
2018-03-08T09:39:18.378Z,91.70
2018-03-08T09:41:20.970Z,91.60
2018-03-08T09:43:24.373Z,91.30
2018-03-08T09:45:27.757Z,89.90
2018-03-08T09:47:31.153Z,90.30
2018-03-08T09:49:34.583Z,90.30
2018-03-08T09:51:37.214Z,90.20
2018-03-08T09:53:40.606Z,90.90
2018-03-08T09:55:43.270Z,90.50
2018-03-08T09:57:45.867Z,90.30
2018-03-08T09:59:49.253Z,89.90
2018-03-08T10:01:52.639Z,91.00
2018-03-08T10:03:55.278Z,90.70
2018-03-08T10:05:57.923Z,90.40
2018-03-08T10:08:00.800Z,89.40
2018-03-08T10:10:04.031Z,89.20
2018-03-08T10:12:06.692Z,88.60
2018-03-08T10:14:09.313Z,88.50
2018-03-08T10:16:11.913Z,88.40
2018-03-08T10:18:14.528Z,88.60
2018-03-08T10:20:17.155Z,87.10
2018-03-08T10:22:20.584Z,86.40
2018-03-08T10:24:23.237Z,86.40
2018-03-08T10:26:26.450Z,86.10
2018-03-08T10:28:29.067Z,85.70
2018-03-08T10:30:31.729Z,85.90
2018-03-08T10:32:34.357Z,84.70
2018-03-08T10:34:36.999Z,86.00
2018-03-08T10:36:39.626Z,85.10
2018-03-08T10:38:42.282Z,83.80
2018-03-08T10:40:44.998Z,82.50
2018-03-08T10:42:47.639Z,84.20
2018-03-08T10:44:50.278Z,82.60
2018-03-08T10:46:52.906Z,81.30
2018-03-08T10:50:58.977Z,83.20
2018-03-08T10:53:01.595Z,83.20
2018-03-08T10:55:05.037Z,82.20
2018-03-08T10:57:07.639Z,82.20
2018-03-08T10:59:10.270Z,82.70
2018-03-08T11:01:18.658Z,82.30
2018-03-08T11:03:27.474Z,82.10
2018-03-08T11:05:30.106Z,81.60
2018-03-08T11:07:32.723Z,80.80
2018-03-08T11:09:36.149Z,80.30
2018-03-08T11:11:38.819Z,80.20
2018-03-08T11:13:41.442Z,80.20
2018-03-08T11:15:44.100Z,79.70
2018-03-08T11:17:46.687Z,81.40
2018-03-08T11:19:49.352Z,82.50
2018-03-08T11:21:51.971Z,82.30
2018-03-08T11:23:55.329Z,82.20
2018-03-08T11:25:57.991Z,81.70
2018-03-08T11:28:00.716Z,81.60
2018-03-08T11:30:04.166Z,79.90
2018-03-08T11:32:07.560Z,79.80
2018-03-08T11:34:10.163Z,81.10
2018-03-08T11:36:12.784Z,81.40
2018-03-08T11:38:15.421Z,82.20
2018-03-08T11:40:18.052Z,81.30
2018-03-08T11:42:20.719Z,80.20
2018-03-08T11:44:23.364Z,78.30
2018-03-08T11:46:26.751Z,80.60
2018-03-08T11:48:30.178Z,79.50
2018-03-08T11:50:32.797Z,79.50
2018-03-08T11:52:35.415Z,76.70
2018-03-08T11:54:38.083Z,75.70
2018-03-08T11:56:40.676Z,75.40
2018-03-08T11:58:43.324Z,74.60
2018-03-08T12:00:46.694Z,75.40
2018-03-08T12:02:49.353Z,75.40
2018-03-08T12:04:51.993Z,75.80
2018-03-08T12:06:54.590Z,75.60
2018-03-08T12:08:57.255Z,74.70
2018-03-08T12:10:59.905Z,76.00
2018-03-08T12:13:02.503Z,75.60
2018-03-08T12:15:05.283Z,75.10
2018-03-08T12:17:07.944Z,77.20
2018-03-08T12:19:11.314Z,78.20
2018-03-08T12:21:14.734Z,76.40
2018-03-08T12:23:17.405Z,76.40
2018-03-08T12:25:20.937Z,76.40
2018-03-08T12:27:23.669Z,75.80
2018-03-08T12:29:27.037Z,75.40
2018-03-08T12:31:29.689Z,75.30
2018-03-08T12:33:32.290Z,75.90
2018-03-08T12:35:34.947Z,77.10
2018-03-08T12:37:37.549Z,73.60
2018-03-08T12:39:40.151Z,73.90
2018-03-08T12:41:42.776Z,73.30
2018-03-08T12:43:45.397Z,73.00
2018-03-08T12:45:48.048Z,71.20
2018-03-08T12:47:52.010Z,71.20
2018-03-08T12:49:54.671Z,70.60
2018-03-08T12:51:57.343Z,70.00
2018-03-08T12:53:59.989Z,70.50
2018-03-08T12:56:03.394Z,70.00
2018-03-08T12:58:06.034Z,69.90
2018-03-08T13:00:08.869Z,72.70
2018-03-08T13:02:11.583Z,73.50
2018-03-08T13:04:15.000Z,73.90
2018-03-08T13:06:18.111Z,73.80
2018-03-08T13:08:20.717Z,73.80
2018-03-08T13:10:23.390Z,73.20
2018-03-08T13:12:26.010Z,73.40
2018-03-08T13:14:28.642Z,71.20
2018-03-08T13:16:31.403Z,66.50
2018-03-08T13:18:34.045Z,66.60
2018-03-08T13:20:36.630Z,66.90
2018-03-08T13:22:40.015Z,68.30
2018-03-08T13:24:43.414Z,69.40
2018-03-08T13:26:46.120Z,69.40
2018-03-08T13:28:48.754Z,67.90
2018-03-08T13:30:51.380Z,68.90
2018-03-08T13:32:54.005Z,70.10
2018-03-08T13:34:57.400Z,66.30
2018-03-08T13:37:00.039Z,66.20
2018-03-08T13:39:02.730Z,65.80
2018-03-08T13:41:05.371Z,67.80
2018-03-08T13:43:07.997Z,66.80
2018-03-08T13:45:10.625Z,66.90
2018-03-08T13:47:13.223Z,65.20
2018-03-08T13:49:27.669Z,66.40
2018-03-08T13:51:30.302Z,65.50
2018-03-08T13:53:32.976Z,65.80
2018-03-08T13:55:35.594Z,65.90
2018-03-08T13:57:38.196Z,63.80
2018-03-08T13:59:40.829Z,63.70
2018-03-08T14:01:43.470Z,63.90
2018-03-08T14:03:46.863Z,64.80
2018-03-08T14:05:50.224Z,64.60
2018-03-08T14:07:52.826Z,64.60
2018-03-08T14:09:56.215Z,66.20
2018-03-08T14:11:59.580Z,66.70
2018-03-08T14:14:02.234Z,66.00
2018-03-08T14:16:04.860Z,67.60
2018-03-08T14:18:08.288Z,66.00
2018-03-08T14:20:11.003Z,65.30
2018-03-08T14:22:13.633Z,65.00
2018-03-08T14:24:16.276Z,66.40
2018-03-08T14:26:19.689Z,62.90
2018-03-08T14:28:23.083Z,61.60
2018-03-08T14:30:26.458Z,63.60
2018-03-08T14:32:29.840Z,63.50
2018-03-08T14:34:32.467Z,63.50
2018-03-08T14:36:35.092Z,62.40
2018-03-08T14:38:37.696Z,60.80
2018-03-08T14:40:40.354Z,63.40
2018-03-08T14:42:43.778Z,62.40
2018-03-08T14:44:46.434Z,62.30
2018-03-08T14:46:49.835Z,63.60
2018-03-08T14:48:52.591Z,63.50
2018-03-08T14:50:55.194Z,62.40
2018-03-08T14:52:57.826Z,63.90
2018-03-08T14:55:00.454Z,62.90
2018-03-08T14:57:03.157Z,63.70
2018-03-08T14:59:05.801Z,62.80
2018-03-08T15:01:08.424Z,64.30
2018-03-08T15:03:11.028Z,64.20
2018-03-08T15:05:15.540Z,63.20
2018-03-08T15:07:18.946Z,64.10
2018-03-08T15:09:22.344Z,64.20
2018-03-08T15:11:25.058Z,64.20
2018-03-08T15:13:27.672Z,65.30
2018-03-08T15:15:30.280Z,64.50
2018-03-08T15:17:32.931Z,65.40
2018-03-08T15:19:36.303Z,66.40
2018-03-08T15:21:38.953Z,66.40
2018-03-08T15:23:41.615Z,66.20
2018-03-08T15:25:44.317Z,65.90
2018-03-08T15:27:46.926Z,64.50
2018-03-08T15:29:50.307Z,65.40
2018-03-08T15:31:52.925Z,65.40
2018-03-08T15:33:55.557Z,65.80
2018-03-08T15:35:58.183Z,65.90
2018-03-08T15:38:00.796Z,65.10
2018-03-08T15:40:03.420Z,65.20
2018-03-08T15:42:06.062Z,66.40
2018-03-08T15:44:09.513Z,67.10
2018-03-08T15:46:12.106Z,66.90
2018-03-08T15:48:14.735Z,65.70
2018-03-08T15:50:17.357Z,66.30
2018-03-08T15:52:19.974Z,66.00
2018-03-08T15:54:23.345Z,67.10
2018-03-08T15:56:25.958Z,67.10
2018-03-08T15:58:28.562Z,67.20
2018-03-08T16:00:31.218Z,67.30
2018-03-08T16:02:33.782Z,67.30
2018-03-08T16:04:36.409Z,68.00
2018-03-08T16:06:50.780Z,67.90
2018-03-08T16:09:06.059Z,68.10
2018-03-08T16:11:09.853Z,68.00
2018-03-08T16:13:12.505Z,68.00
2018-03-08T16:15:15.146Z,67.70
2018-03-08T16:17:17.740Z,66.90
2018-03-08T16:19:20.370Z,68.30
2018-03-08T16:21:23.738Z,68.30
2018-03-08T16:23:26.394Z,68.20
2018-03-08T16:25:29.020Z,69.60
2018-03-08T16:27:31.800Z,67.80
2018-03-08T16:29:35.480Z,68.30
2018-03-08T16:31:38.918Z,68.50
2018-03-08T16:33:41.545Z,68.50
2018-03-08T16:35:44.949Z,68.70
2018-03-08T16:37:48.356Z,68.30
2018-03-08T16:39:50.974Z,68.20
2018-03-08T16:41:53.571Z,68.40
2018-03-08T16:43:56.199Z,68.50
2018-03-08T16:45:58.826Z,68.60
2018-03-08T16:48:01.431Z,69.00
2018-03-08T16:50:04.051Z,69.40
2018-03-08T16:52:06.665Z,69.40
2018-03-08T16:54:10.059Z,69.60
2018-03-08T16:56:13.462Z,69.50
2018-03-08T16:58:16.090Z,69.30
2018-03-08T17:00:18.774Z,69.60
2018-03-08T17:02:21.374Z,70.10
2018-03-08T17:04:24.754Z,70.00
2018-03-08T17:06:27.470Z,70.00
2018-03-08T17:08:30.105Z,69.70
2018-03-08T17:10:32.739Z,68.80
2018-03-08T17:12:35.406Z,69.30
2018-03-08T17:14:38.061Z,69.50
2018-03-08T17:16:40.711Z,69.20
2018-03-08T17:18:44.415Z,69.30
2018-03-08T17:20:47.924Z,69.30
2018-03-08T17:22:51.312Z,69.10
2018-03-08T17:24:54.726Z,68.60
2018-03-08T17:26:57.414Z,68.40
2018-03-08T17:29:00.067Z,68.70
2018-03-08T17:31:03.478Z,70.40
2018-03-08T17:33:06.112Z,70.40
2018-03-08T17:35:08.715Z,69.40
2018-03-08T17:37:12.103Z,69.30
2018-03-08T17:39:15.482Z,69.80
2018-03-08T17:41:18.188Z,69.60
2018-03-08T17:43:20.827Z,70.30
2018-03-08T17:45:23.475Z,69.40
2018-03-08T17:47:26.366Z,70.40
2018-03-08T17:49:28.998Z,70.70
2018-03-08T17:51:32.433Z,70.90
2018-03-08T17:53:35.077Z,71.30
2018-03-08T17:55:37.754Z,71.40
2018-03-08T17:57:40.504Z,71.80
2018-03-08T17:59:43.896Z,73.00
2018-03-08T18:01:47.275Z,73.30
2018-03-08T18:03:49.999Z,73.30
2018-03-08T18:05:52.654Z,73.30
2018-03-08T18:07:55.308Z,73.20
2018-03-08T18:09:58.711Z,73.90
2018-03-08T18:12:02.137Z,74.60
2018-03-08T18:14:04.750Z,74.50
2018-03-08T18:16:07.386Z,75.30
2018-03-08T18:18:10.025Z,75.00
2018-03-08T18:20:13.492Z,75.30
2018-03-08T18:22:16.118Z,75.30
2018-03-08T18:24:18.755Z,75.30
2018-03-08T18:26:21.420Z,75.70
2018-03-08T18:28:24.114Z,76.20
2018-03-08T18:30:26.715Z,76.40
2018-03-08T18:32:29.346Z,76.60
2018-03-08T18:34:31.984Z,76.30
2018-03-08T18:36:34.631Z,77.50
2018-03-08T18:38:38.035Z,77.00
2018-03-08T18:40:40.641Z,76.90
2018-03-08T18:42:43.327Z,77.40
2018-03-08T18:44:48.230Z,77.50
2018-03-08T18:46:50.886Z,77.50
2018-03-08T18:48:54.279Z,77.90
2018-03-08T18:50:57.667Z,78.40
2018-03-08T18:53:01.080Z,78.50
2018-03-08T18:55:04.547Z,78.40
2018-03-08T18:57:08.116Z,78.80
2018-03-08T18:59:10.955Z,78.70
2018-03-08T19:01:13.568Z,78.60
2018-03-08T19:03:16.211Z,78.90
2018-03-08T19:05:18.946Z,78.30
2018-03-08T19:07:22.394Z,79.50
2018-03-08T19:09:25.003Z,79.40
2018-03-08T19:11:27.600Z,79.40
2018-03-08T19:13:31.012Z,80.10
2018-03-08T19:15:33.626Z,80.10
2018-03-08T19:17:36.336Z,80.10
2018-03-08T19:19:39.088Z,80.40
2018-03-08T19:21:41.703Z,81.00
2018-03-08T19:23:45.121Z,81.00
2018-03-08T19:25:47.775Z,81.00
2018-03-08T19:27:51.158Z,81.70
2018-03-08T19:29:54.545Z,81.80
2018-03-08T19:31:57.910Z,82.30
2018-03-08T19:34:00.523Z,82.30
2018-03-08T19:36:03.924Z,83.60
2018-03-08T19:38:07.323Z,83.00
2018-03-08T19:40:09.987Z,82.90
2018-03-08T19:42:13.346Z,82.60
2018-03-08T19:44:15.951Z,82.60
2018-03-08T19:46:19.366Z,83.50
2018-03-08T19:48:21.985Z,83.40
2018-03-08T19:50:25.562Z,83.90
2018-03-08T19:52:28.230Z,83.80
2018-03-08T19:54:30.829Z,83.90
2018-03-08T19:56:33.485Z,84.10
2018-03-08T19:58:36.103Z,84.20
2018-03-08T20:00:38.712Z,84.60
2018-03-08T20:02:41.588Z,84.20
2018-03-08T20:04:44.225Z,84.20
2018-03-08T20:06:46.843Z,84.10
2018-03-08T20:08:49.477Z,84.80
2018-03-08T20:10:52.133Z,84.90
2018-03-08T20:12:54.771Z,84.90
2018-03-08T20:14:57.391Z,85.20
2018-03-08T20:17:00.011Z,85.30
2018-03-08T20:19:03.409Z,85.10
2018-03-08T20:21:06.096Z,85.00
2018-03-08T20:23:08.706Z,85.40
2018-03-08T20:25:11.334Z,85.50
2018-03-08T20:27:14.715Z,85.60
2018-03-08T20:29:18.142Z,85.80
2018-03-08T20:31:20.774Z,85.80
2018-03-08T20:33:23.367Z,85.70
2018-03-08T20:35:26.024Z,85.40
2018-03-08T20:37:28.641Z,85.70
2018-03-08T20:39:31.251Z,85.80
2018-03-08T20:41:33.884Z,85.60
2018-03-08T20:43:36.510Z,85.70
2018-03-08T20:45:39.155Z,86.00
2018-03-08T20:47:41.778Z,86.20
2018-03-08T20:49:45.146Z,85.70
2018-03-08T20:51:47.765Z,85.70
2018-03-08T20:53:50.383Z,86.20
2018-03-08T20:55:53.027Z,86.00
2018-03-08T20:57:55.675Z,86.10
2018-03-08T20:59:59.072Z,86.10
2018-03-08T21:02:02.462Z,86.20
2018-03-08T21:04:05.856Z,86.40
2018-03-08T21:06:09.258Z,85.90
2018-03-08T21:08:12.681Z,86.20
2018-03-08T21:10:15.300Z,86.10
2018-03-08T21:12:18.076Z,86.10
2018-03-08T21:14:21.134Z,86.40
2018-03-08T21:16:23.885Z,85.60
2018-03-08T21:18:26.509Z,85.40
2018-03-08T21:20:29.121Z,85.50
2018-03-08T21:22:31.746Z,84.30
2018-03-08T21:24:34.357Z,84.40
2018-03-08T21:26:37.780Z,84.50
2018-03-08T21:28:40.394Z,84.50
2018-03-08T21:30:43.106Z,84.50
2018-03-08T21:32:46.511Z,84.30
2018-03-08T21:34:49.883Z,83.90
2018-03-08T21:36:52.600Z,83.80
2018-03-08T21:38:55.235Z,83.50
2018-03-08T21:40:57.902Z,82.90
2018-03-08T21:43:00.551Z,83.60
2018-03-08T21:45:03.208Z,83.30
2018-03-08T21:47:05.812Z,82.80
2018-03-08T21:49:08.439Z,83.10
2018-03-08T21:51:11.104Z,82.90
2018-03-08T21:53:13.723Z,83.00
2018-03-08T21:55:16.446Z,82.40
2018-03-08T21:57:19.911Z,82.50
2018-03-08T21:59:22.507Z,82.40
2018-03-08T22:01:25.133Z,82.30
2018-03-08T22:03:27.787Z,82.40
2018-03-08T22:05:30.401Z,81.90
2018-03-08T22:07:33.055Z,81.90
2018-03-08T22:09:35.664Z,81.70
2018-03-08T22:11:38.314Z,82.20
2018-03-08T22:13:40.906Z,82.40
2018-03-08T22:15:43.562Z,82.20
2018-03-08T22:17:46.186Z,82.30
2018-03-08T22:19:48.813Z,82.50
2018-03-08T22:21:51.443Z,82.40
2018-03-08T22:23:54.829Z,82.10
2018-03-08T22:25:58.227Z,82.50
2018-03-08T22:28:01.639Z,82.60
2018-03-08T22:30:04.236Z,82.60
2018-03-08T22:32:06.838Z,82.30
2018-03-08T22:34:09.471Z,82.30
2018-03-08T22:36:12.099Z,82.80
2018-03-08T22:38:14.679Z,82.50
2018-03-08T22:40:17.312Z,82.20
2018-03-08T22:42:19.911Z,82.20
2018-03-08T22:44:22.529Z,82.50
2018-03-08T22:46:25.985Z,83.20
2018-03-08T22:48:28.684Z,83.20
2018-03-08T22:50:31.283Z,83.20
2018-03-08T22:52:33.882Z,83.40
2018-03-08T22:54:36.586Z,83.40
2018-03-08T22:56:40.012Z,83.90
2018-03-08T22:58:43.424Z,83.80
2018-03-08T23:00:46.136Z,83.50
2018-03-08T23:02:48.742Z,83.60
2018-03-08T23:04:51.372Z,84.20
2018-03-08T23:06:53.977Z,84.20
2018-03-08T23:08:56.598Z,84.30
2018-03-08T23:10:59.961Z,84.00
2018-03-08T23:13:02.613Z,83.80
2018-03-08T23:15:05.337Z,84.40
2018-03-08T23:17:08.721Z,84.70
2018-03-08T23:19:12.098Z,85.00
2018-03-08T23:21:15.519Z,85.60
2018-03-08T23:23:18.882Z,85.20
2018-03-08T23:25:21.506Z,85.20
2018-03-08T23:27:24.128Z,85.40
2018-03-08T23:29:26.738Z,85.70
2018-03-08T23:31:29.376Z,86.00
2018-03-08T23:33:32.002Z,85.80
2018-03-08T23:35:34.621Z,86.60
2018-03-08T23:37:37.247Z,86.70
2018-03-08T23:39:39.886Z,86.50
2018-03-08T23:41:42.564Z,86.60
2018-03-08T23:43:45.185Z,86.40
2018-03-08T23:45:47.863Z,86.70
2018-03-08T23:47:50.490Z,86.70
2018-03-08T23:49:53.870Z,88.40
2018-03-08T23:51:56.483Z,88.40
2018-03-08T23:53:59.895Z,88.80
2018-03-08T23:56:02.513Z,88.80
2018-03-08T23:58:05.910Z,88.80
